Terminal Aerodrome Forecast
Issued by NWS Grand Forks, ND

Home | Current Version | Previous Version | Graphics & Text | Print | Product List | Glossary On
Versions: 1 2 3 4 5 6 7 8 9 10 11 12 13 14
000
FTUS43 KFGF 252336
TAFFAR
TAF
KFAR 252336Z 2600/2624 20008KT P6SM FEW200
     FM260800 19008KT P6SM SCT250
     FM260900 20007KT P6SM BKN250
     FM261500 22007KT P6SM SCT250
     FM261700 30006KT P6SM SCT250
     FM261900 34006KT P6SM SCT250
     FM262100 02006KT P6SM SCT250=

USA.gov is the U.S. government's official web portal to all federal, state and local government web resources and services.